Time;durP1;ratioP1;P1;durP2;ratioP2;P2;SDS_P1;SDS_P2;PMS_P1;PMS_P2;Temp;Humidity;BMP_temperature;BMP_pressure;BME280_temperature;BME280_humidity;BME280_pressure;Samples;Min_cycle;Max_cycle;Signal;HPM_P1;HPM_P2
2023/01/06 00:01:18;;;;;;;5.55;3.37;;;;;;;1.59;82.77;101710.27;1660897;84;21082;-84
2023/01/06 00:03:51;;;;;;;5.08;3.25;;;;;;;1.47;83.17;101708.94;1682280;83;21050;-83
2023/01/06 00:06:18;;;;;;;7.53;4.15;;;;;;;1.39;83.16;101703.53;1695226;83;21091;-84
2023/01/06 00:08:48;;;;;;;6.00;4.17;;;;;;;1.32;83.25;101706.95;1693556;83;21428;-83
2023/01/06 00:11:15;;;;;;;13.13;4.28;;;;;;;1.30;83.27;101705.94;1687963;83;21688;-84
2023/01/06 00:13:42;;;;;;;8.55;3.52;;;;;;;1.24;83.20;101705.47;1690174;83;21628;-84
2023/01/06 00:16:16;;;;;;;7.22;3.55;;;;;;;1.22;83.29;101713.89;1693594;84;21075;-83
2023/01/06 00:18:43;;;;;;;9.00;4.03;;;;;;;1.23;83.49;101714.02;1699837;84;21070;-84
2023/01/06 00:21:10;;;;;;;10.48;3.85;;;;;;;1.21;83.39;101715.59;1671633;84;21570;-83
2023/01/06 00:23:37;;;;;;;8.45;3.95;;;;;;;1.18;83.21;101723.12;1684494;83;21756;-83
2023/01/06 00:26:06;;;;;;;12.10;4.15;;;;;;;1.15;83.24;101726.80;1697931;83;21403;-82
2023/01/06 00:28:33;;;;;;;11.15;3.85;;;;;;;1.18;83.29;101733.89;1689951;83;21542;-83
2023/01/06 00:31:09;;;;;;;9.38;3.90;;;;;;;1.16;83.04;101740.25;1687227;83;21082;-83
2023/01/06 00:33:36;;;;;;;7.90;4.30;;;;;;;1.14;83.07;101740.53;1692388;83;21520;-83
2023/01/06 00:36:03;;;;;;;9.10;3.60;;;;;;;1.18;83.16;101742.57;1687484;83;21754;-93
2023/01/06 00:38:30;;;;;;;12.28;4.50;;;;;;;1.22;82.92;101743.72;1701223;83;21645;-83
2023/01/06 00:40:57;;;;;;;9.98;4.33;;;;;;;1.23;82.94;101747.73;1702721;82;21582;-83
2023/01/06 00:43:24;;;;;;;8.90;4.15;;;;;;;1.29;83.10;101756.39;1707207;83;21067;-82
2023/01/06 00:45:51;;;;;;;8.90;3.60;;;;;;;1.32;82.75;101767.02;1705422;82;21031;-82
2023/01/06 00:48:18;;;;;;;7.30;3.80;;;;;;;1.32;82.53;101767.02;1699618;83;21895;-82
2023/01/06 00:50:44;;;;;;;8.20;3.55;;;;;;;1.30;82.22;101768.19;1699261;83;21951;-82
2023/01/06 00:53:15;;;;;;;6.53;3.35;;;;;;;1.29;82.50;101776.73;1691652;83;21108;-92
2023/01/06 00:55:42;;;;;;;9.00;3.25;;;;;;;1.29;82.75;101771.55;1698858;83;21097;-92
2023/01/06 00:58:09;;;;;;;5.50;3.00;;;;;;;1.32;82.45;101783.48;1708861;83;21086;-92
2023/01/06 01:00:36;;;;;;;5.22;2.52;;;;;;;1.29;82.02;101785.81;1699175;82;21728;-92
2023/01/06 01:03:05;;;;;;;5.72;2.90;;;;;;;1.28;81.83;101796.10;1701065;83;21101;-92
2023/01/06 01:05:33;;;;;;;8.33;2.87;;;;;;;1.27;81.72;101796.87;1705725;83;21068;-92
2023/01/06 01:08:00;;;;;;;6.12;2.95;;;;;;;1.30;81.68;101807.09;1700714;83;22397;-93
2023/01/06 01:10:27;;;;;;;9.18;3.17;;;;;;;1.29;81.36;101811.75;1714540;83;21595;-92
2023/01/06 01:13:27;;;;;;;5.30;2.87;;;;;;;1.29;81.41;101810.86;1705194;83;21795;-94
2023/01/06 01:15:56;;;;;;;7.05;3.15;;;;;;;1.31;81.31;101815.41;1697832;83;21071;-93
2023/01/06 01:18:29;;;;;;;12.50;3.10;;;;;;;1.29;80.96;101835.10;1722852;83;21028;-93
2023/01/06 01:21:18;;;;;;;5.92;2.80;;;;;;;1.26;80.35;101832.28;1721343;83;21075;-94
2023/01/06 01:23:45;;;;;;;5.83;2.87;;;;;;;1.24;80.32;101840.70;1703803;83;21048;-92
2023/01/06 01:26:15;;;;;;;6.05;2.70;;;;;;;1.24;80.29;101842.00;1702254;83;21934;-91
2023/01/06 01:28:42;;;;;;;10.05;3.02;;;;;;;1.26;79.96;101849.51;1708079;83;21555;-92
2023/01/06 01:31:12;;;;;;;8.80;2.83;;;;;;;1.23;79.83;101847.59;1703756;83;21097;-92
2023/01/06 01:33:41;;;;;;;7.10;3.00;;;;;;;1.24;79.81;101861.09;1708845;83;21548;-92
2023/01/06 01:36:09;;;;;;;5.95;2.70;;;;;;;1.23;79.34;101858.36;1711603;82;21174;-91
2023/01/06 01:38:36;;;;;;;5.87;2.52;;;;;;;1.16;78.92;101858.25;1706158;83;22002;-91
2023/01/06 01:41:03;;;;;;;9.60;3.52;;;;;;;1.13;78.77;101870.98;1708541;83;21726;-91
2023/01/06 01:43:59;;;;;;;5.85;2.90;;;;;;;1.08;78.74;101857.63;1706075;83;21362;-91
2023/01/06 01:46:36;;;;;;;7.37;3.20;;;;;;;1.11;78.79;101870.86;1711016;82;21092;-92
2023/01/06 01:49:15;;;;;;;8.55;3.20;;;;;;;1.08;78.55;101860.63;1708315;83;21059;-95
2023/01/06 01:52:28;;;;;;;6.60;2.77;;;;;;;1.06;78.30;101873.46;1691916;83;21785;-94
2023/01/06 01:55:39;;;;;;;7.35;3.12;;;;;;;1.01;78.09;101872.17;1713206;82;21055;-94
2023/01/06 01:58:27;;;;;;;9.33;2.98;;;;;;;0.96;77.93;101865.33;1655345;85;21083;-94
2023/01/06 02:01:30;;;;;;;4.45;2.35;;;;;;;0.90;77.38;101870.39;1655666;85;21445;-94
2023/01/06 02:04:27;;;;;;;8.43;3.10;;;;;;;0.86;77.62;101878.30;1681678;85;21078;-94
2023/01/06 02:07:25;;;;;;;4.90;2.60;;;;;;;0.90;77.58;101884.28;1636099;86;21933;-94
2023/01/06 02:10:28;;;;;;;6.22;2.35;;;;;;;0.90;77.44;101889.83;1653782;86;21096;-94
2023/01/06 02:13:36;;;;;;;7.75;3.25;;;;;;;0.87;77.08;101903.45;1670899;85;21099;-92
2023/01/06 02:16:30;;;;;;;5.72;2.95;;;;;;;0.83;77.21;101896.22;1635555;86;21148;-92
2023/01/06 02:19:41;;;;;;;6.08;3.02;;;;;;;0.84;77.08;101901.90;1651198;86;21096;-92
2023/01/06 02:22:35;;;;;;;8.38;3.30;;;;;;;0.81;77.07;101908.52;1668225;85;21244;-84
2023/01/06 02:25:30;;;;;;;6.15;2.83;;;;;;;0.86;77.12;101910.70;1635171;86;21792;-85
2023/01/06 02:28:26;;;;;;;7.90;3.27;;;;;;;0.88;76.74;101914.72;1578398;88;21142;-93
2023/01/06 02:31:21;;;;;;;5.70;2.75;;;;;;;0.83;76.52;101919.55;1644403;85;21496;-85
2023/01/06 02:34:25;;;;;;;5.85;2.75;;;;;;;0.80;76.14;101921.87;1639896;86;21132;-86
2023/01/06 02:37:10;;;;;;;4.08;2.65;;;;;;;0.78;75.99;101923.43;1642261;85;21817;-85
2023/01/06 02:40:22;;;;;;;7.22;3.00;;;;;;;0.76;75.98;101924.59;1702662;83;21427;-95
2023/01/06 02:43:32;;;;;;;8.83;3.10;;;;;;;0.77;76.15;101922.53;1708377;83;21619;-92
2023/01/06 02:49:49;;;;;;;6.50;2.77;;;;;;;0.82;75.92;101921.61;1605751;88;21194;-86
2023/01/06 02:52:59;;;;;;;6.30;2.67;;;;;;;0.83;75.59;101926.42;1609255;88;21367;-92
2023/01/06 02:55:46;;;;;;;5.45;2.90;;;;;;;0.83;75.63;101923.83;1603395;88;21130;-95
2023/01/06 02:59:00;;;;;;;6.37;2.92;;;;;;;0.81;75.53;101918.52;1550214;92;21155;-92
2023/01/06 03:01:35;;;;;;;7.97;3.67;;;;;;;0.86;75.66;101918.88;1531343;92;21107;-93
2023/01/06 03:04:37;;;;;;;10.00;3.67;;;;;;;0.89;75.49;101912.66;1541538;91;21315;-93
2023/01/06 03:07:04;;;;;;;7.53;3.87;;;;;;;0.85;75.35;101904.13;1561571;91;21748;-93
2023/01/06 03:09:35;;;;;;;9.33;3.62;;;;;;;0.86;75.30;101904.63;1560608;91;21057;-87
2023/01/06 03:12:32;;;;;;;8.25;3.52;;;;;;;0.84;75.25;101895.81;1563303;91;21483;-85
2023/01/06 03:15:08;;;;;;;7.10;3.45;;;;;;;0.74;75.30;101878.61;1543513;90;21134;-85
2023/01/06 03:17:48;;;;;;;5.50;2.98;;;;;;;0.88;75.03;101904.36;1569326;89;21143;-85
2023/01/06 03:21:08;;;;;;;6.42;2.77;;;;;;;0.83;74.51;101897.91;1561504;89;21859;-85
2023/01/06 03:24:07;;;;;;;6.55;3.08;;;;;;;0.75;74.32;101902.06;1549480;89;21170;-84
2023/01/06 03:26:38;;;;;;;6.72;2.67;;;;;;;0.68;74.03;101911.80;1690795;83;21546;-92
2023/01/06 03:29:10;;;;;;;5.10;2.60;;;;;;;0.64;74.04;101908.41;1715509;82;21075;-84
2023/01/06 03:31:51;;;;;;;5.35;2.77;;;;;;;0.63;73.87;101908.80;1717613;82;21071;-84
2023/01/06 03:34:58;;;;;;;10.05;3.35;;;;;;;0.61;73.94;101906.88;1710563;82;23116;-84
2023/01/06 03:37:57;;;;;;;6.72;3.00;;;;;;;0.61;73.96;101902.59;1708534;83;21067;-84
2023/01/06 03:40:41;;;;;;;6.37;3.00;;;;;;;0.66;74.13;101912.96;1710970;82;21383;-83
2023/01/06 03:43:31;;;;;;;10.90;3.10;;;;;;;0.66;74.11;101914.25;1707739;82;20980;-84
2023/01/06 03:46:18;;;;;;;10.93;3.27;;;;;;;0.67;74.15;101922.53;1709714;83;21575;-84
2023/01/06 03:49:07;;;;;;;6.37;3.12;;;;;;;0.75;74.22;101926.69;1714023;82;21843;-84
2023/01/06 03:51:48;;;;;;;7.95;3.35;;;;;;;0.73;73.92;101936.02;1690017;83;21221;-84
2023/01/06 03:54:40;;;;;;;7.87;3.17;;;;;;;0.68;73.82;101928.24;1714790;82;21370;-84
2023/01/06 03:57:13;;;;;;;8.75;4.03;;;;;;;0.70;74.00;101929.67;1710780;82;21039;-83
2023/01/06 03:59:46;;;;;;;4.72;2.83;;;;;;;0.73;73.63;101940.27;1713191;82;21115;-82
2023/01/06 04:02:13;;;;;;;6.78;2.85;;;;;;;0.68;73.23;101936.41;1689301;83;22854;-83
2023/01/06 04:04:40;;;;;;;5.35;3.12;;;;;;;0.64;73.20;101936.91;1716346;82;21643;-82
2023/01/06 04:07:07;;;;;;;5.25;2.80;;;;;;;0.60;73.01;101924.08;1664202;83;21047;-82
2023/01/06 04:09:33;;;;;;;3.87;2.45;;;;;;;0.59;73.05;101918.41;1717870;82;21053;-82
2023/01/06 04:14:45;;;;;;;5.40;3.05;;;;;;;0.63;72.87;101929.53;1710480;82;21937;-83
2023/01/06 04:17:12;;;;;;;6.15;3.30;;;;;;;0.66;73.08;101930.20;1708159;82;21932;-83
2023/01/06 04:19:40;;;;;;;7.62;3.47;;;;;;;0.70;73.10;101924.49;1713366;82;21123;-83
2023/01/06 04:22:07;;;;;;;6.55;3.17;;;;;;;0.70;72.95;101927.98;1708585;82;21076;-84
2023/01/06 04:24:34;;;;;;;7.03;3.33;;;;;;;0.71;72.83;101924.63;1711878;82;21066;-83
2023/01/06 04:27:01;;;;;;;7.17;3.17;;;;;;;0.74;73.04;101918.78;1712598;82;22057;-83
2023/01/06 04:29:28;;;;;;;6.72;3.83;;;;;;;0.76;72.94;101917.22;1710042;82;21308;-83
2023/01/06 04:31:55;;;;;;;7.03;3.45;;;;;;;0.79;73.00;101926.55;1713297;82;21071;-84
2023/01/06 04:34:21;;;;;;;9.18;4.17;;;;;;;0.77;72.93;101924.23;1711317;83;21484;-83
2023/01/06 04:36:49;;;;;;;8.38;3.90;;;;;;;0.80;73.13;101938.72;1715532;82;21067;-92
2023/01/06 04:39:17;;;;;;;6.83;3.47;;;;;;;0.82;73.02;101940.14;1714981;83;21765;-92
2023/01/06 04:41:44;;;;;;;6.15;3.12;;;;;;;0.78;72.58;101947.66;1715163;83;21525;-91
2023/01/06 04:44:10;;;;;;;8.33;3.10;;;;;;;0.71;72.11;101943.13;1714412;83;21064;-91
2023/01/06 04:46:38;;;;;;;8.45;2.95;;;;;;;0.68;71.92;101941.60;1717972;82;21043;-92
2023/01/06 04:49:12;;;;;;;7.20;3.15;;;;;;;0.64;71.68;101930.06;1717865;83;21110;-91
2023/01/06 04:51:38;;;;;;;7.33;3.40;;;;;;;0.63;71.86;101932.52;1714804;83;21813;-92
2023/01/06 04:54:07;;;;;;;7.25;3.50;;;;;;;0.65;72.04;101943.92;1714365;83;21008;-92
2023/01/06 04:56:34;;;;;;;8.73;3.30;;;;;;;0.71;72.19;101947.02;1715387;82;21416;-92
2023/01/06 04:59:01;;;;;;;6.90;3.42;;;;;;;0.75;72.19;101940.01;1716505;83;21483;-91
2023/01/06 05:01:28;;;;;;;8.13;4.37;;;;;;;0.74;72.19;101941.70;1715570;83;21548;-91
2023/01/06 05:03:55;;;;;;;10.05;4.08;;;;;;;0.80;72.32;101949.08;1721370;82;21819;-91
2023/01/06 05:06:23;;;;;;;10.75;4.10;;;;;;;0.86;72.28;101946.09;1718439;83;21515;-93
2023/01/06 05:08:50;;;;;;;6.95;3.60;;;;;;;0.90;72.33;101950.75;1715732;83;21107;-84
2023/01/06 05:11:22;;;;;;;9.30;4.15;;;;;;;0.91;72.06;101953.47;1720389;82;21095;-85
2023/01/06 05:14:01;;;;;;;10.53;4.17;;;;;;;0.88;72.16;101953.61;1715578;82;21637;-94
2023/01/06 05:16:33;;;;;;;7.28;3.55;;;;;;;0.89;72.05;101956.33;1715202;83;21790;-93
2023/01/06 05:19:08;;;;;;;10.98;4.22;;;;;;;0.87;72.02;101959.19;1717867;82;22046;-93
2023/01/06 05:21:36;;;;;;;9.40;3.85;;;;;;;0.87;72.24;101952.71;1716895;81;21019;-84
2023/01/06 05:24:03;;;;;;;7.80;4.08;;;;;;;0.95;72.39;101964.61;1715015;82;21507;-84
2023/01/06 05:26:29;;;;;;;8.75;5.03;;;;;;;0.97;72.18;101966.94;1682926;83;21059;-84
2023/01/06 05:28:56;;;;;;;11.05;3.30;;;;;;;0.98;72.15;101962.69;1720762;82;22574;-86
2023/01/06 05:31:24;;;;;;;9.95;3.83;;;;;;;1.01;72.02;101965.91;1719221;82;21679;-85
2023/01/06 05:33:58;;;;;;;6.37;3.15;;;;;;;0.95;71.90;101957.23;1714545;83;21071;-93
2023/01/06 05:36:26;;;;;;;8.13;3.47;;;;;;;0.91;71.83;101957.36;1716741;83;21078;-83
2023/01/06 05:38:53;;;;;;;7.50;3.40;;;;;;;0.81;71.66;101935.73;1701549;83;21116;-84
2023/01/06 05:41:20;;;;;;;7.03;2.85;;;;;;;0.88;71.68;101951.02;1697485;83;21796;-85
2023/01/06 05:43:47;;;;;;;9.35;3.08;;;;;;;0.87;71.61;101943.64;1697427;84;21115;-93
2023/01/06 05:46:22;;;;;;;6.83;3.40;;;;;;;0.82;71.40;101942.73;1697971;83;21247;-92
2023/01/06 05:48:48;;;;;;;5.03;2.73;;;;;;;0.78;71.42;101943.77;1697229;83;21653;-83
2023/01/06 05:51:15;;;;;;;7.72;3.10;;;;;;;0.79;71.32;101949.88;1694698;83;21067;-84
2023/01/06 05:53:45;;;;;;;5.00;3.15;;;;;;;0.78;71.25;101955.83;1683451;83;21854;-91
2023/01/06 05:56:16;;;;;;;7.90;3.02;;;;;;;0.74;71.22;101955.06;1693892;83;21087;-94
2023/01/06 05:58:49;;;;;;;9.10;3.20;;;;;;;0.71;71.25;101954.80;1688851;83;21052;-91
2023/01/06 06:01:22;;;;;;;5.67;2.87;;;;;;;0.69;71.28;101962.43;1695726;83;21225;-91
2023/01/06 06:03:49;;;;;;;5.72;3.15;;;;;;;0.76;71.45;101971.64;1694269;83;21090;-84
2023/01/06 06:06:29;;;;;;;8.45;2.92;;;;;;;0.76;71.24;101969.05;1698556;83;21774;-92
2023/01/06 06:09:09;;;;;;;7.95;3.45;;;;;;;0.81;71.50;101973.31;1697440;84;21068;-91
2023/01/06 06:11:36;;;;;;;6.42;3.37;;;;;;;0.87;71.65;101967.37;1691603;83;21092;-84
2023/01/06 06:14:07;;;;;;;8.20;3.72;;;;;;;0.92;71.50;101959.55;1697506;83;21076;-84
2023/01/06 06:16:34;;;;;;;10.72;4.00;;;;;;;0.93;71.41;101966.17;1667362;84;21094;-84
2023/01/06 06:19:03;;;;;;;6.47;3.20;;;;;;;0.96;71.52;101959.06;1674967;83;21766;-92
2023/01/06 06:21:30;;;;;;;7.50;3.70;;;;;;;1.01;71.47;101959.42;1690036;83;21072;-84
2023/01/06 06:23:57;;;;;;;7.90;3.92;;;;;;;1.03;71.34;101959.16;1685852;83;21665;-84
2023/01/06 06:26:24;;;;;;;6.22;3.62;;;;;;;1.00;71.22;101959.83;1695727;83;21060;-84
2023/01/06 06:28:51;;;;;;;7.10;3.45;;;;;;;0.96;71.06;101966.44;1697506;83;21473;-83
2023/01/06 06:31:21;;;;;;;6.67;3.60;;;;;;;0.90;71.18;101950.39;1696679;83;21880;-84
2023/01/06 06:33:54;;;;;;;8.20;3.83;;;;;;;0.88;71.19;101948.06;1696331;83;21632;-84
2023/01/06 06:36:21;;;;;;;4.35;3.25;;;;;;;0.90;71.16;101955.94;1696252;83;21087;-83
2023/01/06 06:38:49;;;;;;;7.78;3.10;;;;;;;0.89;71.12;101952.45;1711859;82;21386;-84
2023/01/06 06:41:16;;;;;;;5.80;3.40;;;;;;;0.92;70.96;101950.48;1709404;82;21587;-90
2023/01/06 06:43:48;;;;;;;6.17;3.52;;;;;;;0.91;70.91;101939.22;1702194;82;21866;-90
2023/01/06 06:46:15;;;;;;;6.43;3.63;;;;;;;0.88;70.87;101932.87;1694322;82;21088;-92
2023/01/06 06:48:42;;;;;;;7.78;3.67;;;;;;;0.85;70.85;101928.34;1682956;83;21091;-92
2023/01/06 06:51:15;;;;;;;10.72;4.53;;;;;;;0.84;70.87;101931.70;1696933;82;21858;-92
2023/01/06 06:53:53;;;;;;;;;;;;;;;0.84;70.98;101931.70;1698306;83;21155;-92
2023/01/06 06:56:21;;;;;;;8.00;3.77;;;;;;;0.82;70.91;101928.08;1685447;83;21808;-92
2023/01/06 06:58:49;;;;;;;6.45;3.50;;;;;;;0.86;70.80;101942.20;1678455;83;21565;-83
2023/01/06 07:01:19;;;;;;;9.68;3.77;;;;;;;0.84;70.91;101938.59;1673537;83;21038;-83
2023/01/06 07:03:45;;;;;;;6.75;3.67;;;;;;;0.80;70.82;101934.83;1703040;82;21087;-84
2023/01/06 07:06:15;;;;;;;5.67;3.65;;;;;;;0.80;70.84;101940.02;1694616;82;21723;-84
2023/01/06 07:08:45;;;;;;;6.15;4.00;;;;;;;0.79;70.90;101942.11;1704795;83;21810;-83
2023/01/06 07:11:13;;;;;;;8.20;4.30;;;;;;;0.79;71.01;101946.00;1707398;82;21090;-84
2023/01/06 07:13:40;;;;;;;7.95;4.55;;;;;;;0.78;70.96;101949.34;1710449;83;21047;-82
2023/01/06 07:16:07;;;;;;;11.78;4.72;;;;;;;0.74;70.96;101945.59;1697010;82;21138;-83
2023/01/06 07:18:33;;;;;;;8.35;4.50;;;;;;;0.76;71.07;101948.31;1710536;82;21040;-84
2023/01/06 07:21:00;;;;;;;6.08;3.50;;;;;;;0.77;71.09;101947.16;1697536;82;22596;-84
2023/01/06 07:23:27;;;;;;;11.97;4.60;;;;;;;0.79;71.17;101948.59;1694650;82;21055;-85
2023/01/06 07:25:56;;;;;;;8.08;4.37;;;;;;;0.83;71.22;101950.65;1705447;82;21048;-94
2023/01/06 07:28:26;;;;;;;7.87;4.53;;;;;;;0.82;71.23;101942.73;1684157;82;21594;-93
2023/01/06 07:31:23;;;;;;;9.28;5.40;;;;;;;0.85;71.07;101959.45;1684325;83;21589;-92
2023/01/06 07:33:52;;;;;;;11.53;5.95;;;;;;;0.86;71.12;101957.36;1661876;85;21750;-90
2023/01/06 07:36:25;;;;;;;9.40;4.65;;;;;;;0.88;71.09;101957.50;1663986;85;21076;-90
2023/01/06 07:38:51;;;;;;;9.73;4.78;;;;;;;0.86;70.88;101965.14;1697165;83;21077;-90
2023/01/06 07:41:24;;;;;;;6.12;4.00;;;;;;;0.87;70.93;101981.63;1710181;83;21048;-93
2023/01/06 07:43:53;;;;;;;10.57;4.37;;;;;;;0.93;70.96;101989.50;1710945;83;21484;-92
2023/01/06 07:46:21;;;;;;;9.20;4.58;;;;;;;0.91;70.68;101974.22;1710546;83;21947;-91
2023/01/06 07:48:53;;;;;;;9.88;5.20;;;;;;;0.93;70.59;101969.16;1710056;83;21696;-94
2023/01/06 07:51:20;;;;;;;10.38;5.05;;;;;;;0.95;70.62;101966.30;1710305;83;21556;-92
2023/01/06 07:53:49;;;;;;;8.55;5.80;;;;;;;1.00;70.67;101964.11;1712074;82;21137;-92
2023/01/06 07:56:19;;;;;;;14.70;6.28;;;;;;;1.03;70.63;101961.75;1714361;83;21041;-90
2023/01/06 07:58:45;;;;;;;13.28;6.33;;;;;;;1.04;70.53;101967.47;1710808;83;21715;-93
2023/01/06 08:01:48;;;;;;;13.60;7.20;;;;;;;1.02;70.45;101969.93;1710899;83;21057;-95
2023/01/06 08:04:24;;;;;;;24.85;11.93;;;;;;;1.06;70.53;101970.70;1710962;83;21065;-93
2023/01/06 08:06:51;;;;;;;22.07;11.53;;;;;;;1.12;70.45;101969.89;1710685;83;21160;-92
2023/01/06 08:09:19;;;;;;;21.17;10.58;;;;;;;1.16;70.50;101978.84;1709468;83;21057;-90
2023/01/06 08:11:45;;;;;;;14.98;7.80;;;;;;;1.18;70.51;101972.09;1727980;82;21730;-84
2023/01/06 08:14:13;;;;;;;11.08;6.70;;;;;;;1.22;70.36;101967.70;1709061;82;21052;-84
2023/01/06 08:16:48;;;;;;;11.25;6.40;;;;;;;1.23;70.37;101968.59;1708973;83;21083;-92
2023/01/06 08:19:17;;;;;;;7.92;5.20;;;;;;;1.29;70.43;101969.98;1711530;83;21066;-90
2023/01/06 08:21:45;;;;;;;8.55;5.42;;;;;;;1.31;70.27;101961.97;1709803;82;21036;-92
2023/01/06 08:24:12;;;;;;;13.13;6.20;;;;;;;1.30;70.15;101954.95;1713607;81;21734;-84
2023/01/06 08:26:39;;;;;;;10.25;4.72;;;;;;;1.29;70.28;101957.02;1717444;82;21103;-84
2023/01/06 08:29:06;;;;;;;11.40;5.17;;;;;;;1.29;70.47;101949.23;1708327;83;21116;-83
2023/01/06 08:31:49;;;;;;;10.13;5.08;;;;;;;1.21;70.50;101939.93;1728415;82;21086;-89
2023/01/06 08:34:16;;;;;;;11.45;5.90;;;;;;;1.10;70.62;101942.03;1701679;83;21690;-84
2023/01/06 08:36:44;;;;;;;10.32;5.30;;;;;;;1.06;70.92;101934.39;1709299;83;21829;-84
2023/01/06 08:39:11;;;;;;;10.70;5.70;;;;;;;1.05;71.08;101926.48;1707426;83;21673;-87
2023/01/06 08:41:58;;;;;;;9.70;5.95;;;;;;;1.02;71.21;101924.55;1698958;83;21132;-89
2023/01/06 08:44:25;;;;;;;9.58;5.25;;;;;;;0.89;71.26;101904.48;1698021;84;20996;-89
2023/01/06 08:46:51;;;;;;;10.72;5.85;;;;;;;0.96;71.33;101914.98;1686294;82;21290;-88
2023/01/06 08:49:19;;;;;;;12.53;6.65;;;;;;;0.96;71.45;101913.30;1705255;82;21710;-89
2023/01/06 08:52:06;;;;;;;19.35;9.30;;;;;;;0.96;71.43;101911.09;1705122;83;21036;-90
2023/01/06 08:54:33;;;;;;;20.40;9.60;;;;;;;0.95;71.54;101915.75;1704410;83;21043;-91
2023/01/06 08:57:00;;;;;;;24.18;9.90;;;;;;;0.97;71.50;101924.56;1705217;82;21216;-90
2023/01/06 08:59:33;;;;;;;17.37;7.60;;;;;;;1.02;71.75;101923.27;1707967;83;21048;-88
2023/01/06 09:02:22;;;;;;;13.03;6.10;;;;;;;1.08;71.73;101929.34;1695569;83;22615;-90
2023/01/06 09:04:51;;;;;;;11.33;5.37;;;;;;;1.08;71.49;101932.83;1710116;83;21071;-91
2023/01/06 09:07:17;;;;;;;11.73;5.55;;;;;;;0.97;71.46;101916.38;1696956;83;21712;-88
2023/01/06 09:09:44;;;;;;;12.73;6.33;;;;;;;1.10;71.58;101937.75;1698474;83;21559;-89
2023/01/06 09:12:12;;;;;;;11.05;5.62;;;;;;;1.14;71.59;101943.69;1694999;83;22012;-85
2023/01/06 09:14:40;;;;;;;9.93;5.28;;;;;;;1.18;71.57;101938.37;1698562;83;22608;-89
2023/01/06 09:17:07;;;;;;;10.18;5.50;;;;;;;1.20;71.55;101937.20;1697734;83;21082;-88
2023/01/06 09:19:35;;;;;;;10.38;5.72;;;;;;;1.24;71.67;101944.45;1703090;83;21067;-88
2023/01/06 09:22:13;;;;;;;12.10;7.08;;;;;;;1.26;71.66;101941.22;1712187;83;21135;-92
2023/01/06 09:24:48;;;;;;;16.35;7.75;;;;;;;1.29;71.61;101940.55;1697027;83;21058;-92
2023/01/06 09:27:23;;;;;;;15.45;8.25;;;;;;;1.30;71.59;101941.98;1698395;83;21761;-93
2023/01/06 09:29:50;;;;;;;18.30;7.97;;;;;;;1.32;71.68;101943.41;1706913;83;21524;-87
2023/01/06 09:32:22;;;;;;;15.72;8.03;;;;;;;1.30;71.55;101938.09;1699630;83;21473;-90
2023/01/06 09:34:49;;;;;;;15.87;8.70;;;;;;;1.24;71.27;101946.67;1705367;82;21220;-83
2023/01/06 09:37:17;;;;;;;19.73;8.95;;;;;;;1.21;71.37;101943.82;1702830;83;21043;-81
2023/01/06 09:39:44;;;;;;;16.75;8.23;;;;;;;1.22;71.49;101929.16;1699794;82;21771;-83
2023/01/06 09:42:44;;;;;;;17.17;9.05;;;;;;;1.24;71.48;101918.52;1700474;82;21030;-86
2023/01/06 09:45:29;;;;;;;17.55;9.05;;;;;;;1.19;71.46;101904.29;1705014;83;21055;-85
2023/01/06 09:48:17;;;;;;;19.35;9.30;;;;;;;1.19;71.43;101894.81;1707446;83;21188;-90
2023/01/06 09:50:46;;;;;;;21.48;10.45;;;;;;;1.17;71.43;101893.78;1700566;83;21048;-85
2023/01/06 09:53:39;;;;;;;16.90;9.20;;;;;;;1.21;71.44;101892.35;1715137;82;21745;-86
2023/01/06 09:56:14;;;;;;;15.68;8.85;;;;;;;1.22;71.48;101886.36;1651143;84;21103;-89
2023/01/06 09:58:52;;;;;;;16.48;9.85;;;;;;;1.16;71.29;101872.51;1643738;83;22005;-85
2023/01/06 10:01:24;;;;;;;23.67;11.97;;;;;;;1.06;70.97;101871.27;1700673;83;21053;-84
2023/01/06 10:03:51;;;;;;;20.50;10.65;;;;;;;1.01;70.93;101876.06;1696929;83;21071;-85
2023/01/06 10:06:38;;;;;;;19.20;10.45;;;;;;;0.99;71.00;101884.11;1672889;85;21775;-84
2023/01/06 10:09:19;;;;;;;16.73;9.15;;;;;;;1.00;71.08;101881.15;1673181;85;21083;-85
2023/01/06 10:12:04;;;;;;;16.67;8.98;;;;;;;0.96;70.86;101882.18;1702532;82;21591;-88
2023/01/06 10:14:49;;;;;;;17.98;8.58;;;;;;;0.91;70.88;101874.41;1696914;82;21068;-84
2023/01/06 10:17:37;;;;;;;12.70;8.58;;;;;;;0.90;70.96;101869.09;1701478;83;21152;-83
2023/01/06 10:20:33;;;;;;;16.12;8.35;;;;;;;0.92;70.99;101860.69;1696213;83;21978;-86
2023/01/06 10:23:23;;;;;;;15.08;7.12;;;;;;;0.89;70.97;101857.83;1699786;82;22193;-92
2023/01/06 10:26:06;;;;;;;13.00;7.75;;;;;;;0.86;70.92;101848.49;1701573;83;21081;-90
2023/01/06 10:28:46;;;;;;;13.62;8.10;;;;;;;0.84;71.01;101837.09;1695248;83;21460;-89
2023/01/06 10:31:17;;;;;;;14.15;8.15;;;;;;;0.83;70.94;101830.13;1697241;83;21052;-94
2023/01/06 10:34:04;;;;;;;15.90;8.08;;;;;;;0.84;71.05;101838.80;1700501;84;21776;-91
2023/01/06 10:37:08;;;;;;;12.75;7.78;;;;;;;0.91;71.23;101839.81;1693056;83;21909;-91
2023/01/06 10:39:37;;;;;;;15.32;8.73;;;;;;;0.91;71.04;101823.86;1704420;83;28978;-86
2023/01/06 10:45:14;;;;;;;10.28;6.47;;;;;;;0.95;71.22;101819.43;1723406;82;21050;-87
2023/01/06 10:47:42;;;;;;;17.32;7.85;;;;;;;0.96;70.87;101815.17;1727474;82;21727;-89
2023/01/06 10:50:17;;;;;;;14.80;7.78;;;;;;;0.91;70.89;101826.45;1723670;82;21070;-95
2023/01/06 10:52:45;;;;;;;13.65;7.30;;;;;;;0.96;71.01;101826.45;1714137;82;21261;-86
2023/01/06 10:55:32;;;;;;;14.20;7.30;;;;;;;0.95;70.93;101822.42;1708787;83;21566;-82
2023/01/06 10:58:27;;;;;;;14.45;7.20;;;;;;;0.97;71.07;101820.45;1708908;82;21096;-87
2023/01/06 11:01:01;;;;;;;12.63;6.90;;;;;;;1.07;71.37;101822.50;1715418;82;21895;-88
2023/01/06 11:03:28;;;;;;;13.40;7.17;;;;;;;1.18;71.19;101825.56;1699826;82;21035;-89
2023/01/06 11:06:23;;;;;;;9.63;5.90;;;;;;;1.18;71.19;101827.25;1714350;82;21047;-89
2023/01/06 11:08:50;;;;;;;16.05;7.05;;;;;;;1.20;71.09;101827.88;1710137;83;21096;-83
2023/01/06 11:11:23;;;;;;;9.90;6.55;;;;;;;1.24;71.05;101825.14;1704126;82;21625;-89
2023/01/06 11:13:52;;;;;;;12.40;7.00;;;;;;;1.22;70.96;101818.56;1690446;84;21875;-89
2023/01/06 11:16:31;;;;;;;17.98;7.55;;;;;;;1.27;71.05;101811.13;1721372;82;21115;-89
2023/01/06 11:19:03;;;;;;;13.78;7.70;;;;;;;1.26;70.88;101806.34;1723513;82;21491;-89
2023/01/06 11:21:45;;;;;;;14.53;7.40;;;;;;;1.22;70.79;101804.30;1724910;82;21069;-89
2023/01/06 11:24:19;;;;;;;18.73;8.58;;;;;;;1.25;70.96;101808.41;1695990;83;21119;-89
2023/01/06 11:26:57;;;;;;;19.42;10.85;;;;;;;1.33;71.01;101809.02;1714331;82;22772;-89
2023/01/06 11:29:38;;;;;;;36.68;21.25;;;;;;;1.36;70.93;101801.48;1672416;85;21092;-89
2023/01/06 11:32:16;;;;;;;25.10;14.78;;;;;;;1.38;70.89;101792.13;1708700;82;21570;-89
2023/01/06 11:34:56;;;;;;;22.58;11.50;;;;;;;1.37;70.71;101779.97;1701409;82;21056;-90
2023/01/06 11:37:36;;;;;;;20.02;9.15;;;;;;;1.35;70.74;101777.61;1639566;86;21160;-91
2023/01/06 11:40:06;;;;;;;14.83;8.58;;;;;;;1.33;70.74;101771.03;1622246;86;21914;-88
2023/01/06 11:42:39;;;;;;;17.67;8.50;;;;;;;1.33;70.79;101767.14;1595441;89;21122;-89
2023/01/06 11:45:41;;;;;;;14.73;8.60;;;;;;;1.31;70.75;101760.94;1595417;89;21106;-91
2023/01/06 11:48:23;;;;;;;12.65;7.45;;;;;;;1.27;70.74;101760.16;1583643;88;21193;-89
2023/01/06 11:51:01;;;;;;;12.60;7.28;;;;;;;1.20;70.57;101744.89;1587053;88;21649;-83
2023/01/06 11:53:28;;;;;;;11.73;6.90;;;;;;;1.13;70.64;101742.63;1599320;88;21914;-89
2023/01/06 11:56:17;;;;;;;11.38;6.60;;;;;;;1.08;70.61;101733.17;1594050;89;21090;-89
2023/01/06 11:59:09;;;;;;;10.05;6.05;;;;;;;1.07;70.79;101730.08;1604294;88;21126;-89
2023/01/06 12:01:59;;;;;;;10.53;6.97;;;;;;;1.10;70.77;101725.12;1585093;89;21138;-89
2023/01/06 12:04:40;;;;;;;12.37;7.42;;;;;;;1.10;70.79;101718.63;1599609;88;21183;-89
2023/01/06 12:07:18;;;;;;;15.10;8.48;;;;;;;1.12;70.76;101707.09;1599666;89;21879;-83
2023/01/06 12:09:46;;;;;;;15.15;7.90;;;;;;;1.11;70.83;101698.82;1597556;88;21091;-90
2023/01/06 12:12:21;;;;;;;13.25;7.10;;;;;;;1.17;70.88;101695.40;1596039;89;21219;-89
2023/01/06 12:14:48;;;;;;;19.65;10.80;;;;;;;1.21;70.92;101680.58;1604091;88;21086;-83
2023/01/06 12:17:39;;;;;;;15.32;7.62;;;;;;;1.31;70.99;101687.37;1597078;88;21623;-90